sensor_id;sensor_type;location;lat;lon;timestamp;temperature;humidity
11112;DHT22;5609;49.466;8.468;2023-04-24T00:01:24;11.50;99.90
11112;DHT22;5609;49.466;8.468;2023-04-24T00:03:51;11.60;99.90
11112;DHT22;5609;49.466;8.468;2023-04-24T00:06:17;11.50;99.90
11112;DHT22;5609;49.466;8.468;2023-04-24T00:08:44;11.60;99.90
11112;DHT22;5609;49.466;8.468;2023-04-24T00:11:12;11.60;99.90
11112;DHT22;5609;49.466;8.468;2023-04-24T00:13:39;11.60;99.90
11112;DHT22;5609;49.466;8.468;2023-04-24T00:16:06;11.60;99.90
11112;DHT22;5609;49.466;8.468;2023-04-24T00:18:32;11.50;99.90
11112;DHT22;5609;49.466;8.468;2023-04-24T00:20:59;11.50;99.90
11112;DHT22;5609;49.466;8.468;2023-04-24T00:23:26;11.50;99.90
11112;DHT22;5609;49.466;8.468;2023-04-24T00:25:53;11.60;99.90
11112;DHT22;5609;49.466;8.468;2023-04-24T00:28:21;11.50;99.90
11112;DHT22;5609;49.466;8.468;2023-04-24T00:30:47;11.60;99.90
11112;DHT22;5609;49.466;8.468;2023-04-24T00:33:14;11.60;99.90
11112;DHT22;5609;49.466;8.468;2023-04-24T00:35:41;11.60;99.90
11112;DHT22;5609;49.466;8.468;2023-04-24T00:38:08;11.60;99.90
11112;DHT22;5609;49.466;8.468;2023-04-24T00:40:34;11.60;99.90
11112;DHT22;5609;49.466;8.468;2023-04-24T00:43:01;11.60;99.90
11112;DHT22;5609;49.466;8.468;2023-04-24T00:45:29;11.60;99.90
11112;DHT22;5609;49.466;8.468;2023-04-24T00:47:57;11.60;99.90
11112;DHT22;5609;49.466;8.468;2023-04-24T00:50:24;11.60;99.90
11112;DHT22;5609;49.466;8.468;2023-04-24T00:52:52;11.60;99.90
11112;DHT22;5609;49.466;8.468;2023-04-24T00:55:19;11.60;99.90
11112;DHT22;5609;49.466;8.468;2023-04-24T00:57:46;11.50;99.90
11112;DHT22;5609;49.466;8.468;2023-04-24T01:00:14;11.60;99.90
11112;DHT22;5609;49.466;8.468;2023-04-24T01:02:43;11.60;99.90
11112;DHT22;5609;49.466;8.468;2023-04-24T01:05:11;11.60;99.90
11112;DHT22;5609;49.466;8.468;2023-04-24T01:07:39;11.70;99.90
11112;DHT22;5609;49.466;8.468;2023-04-24T01:10:10;11.60;99.90
11112;DHT22;5609;49.466;8.468;2023-04-24T01:12:37;11.60;99.90
11112;DHT22;5609;49.466;8.468;2023-04-24T01:15:04;11.60;99.90
11112;DHT22;5609;49.466;8.468;2023-04-24T01:17:31;11.60;99.90
11112;DHT22;5609;49.466;8.468;2023-04-24T01:20:00;11.60;99.90
11112;DHT22;5609;49.466;8.468;2023-04-24T01:22:32;11.60;99.90
11112;DHT22;5609;49.466;8.468;2023-04-24T01:24:59;11.50;99.90
11112;DHT22;5609;49.466;8.468;2023-04-24T01:27:26;11.50;99.90
11112;DHT22;5609;49.466;8.468;2023-04-24T01:29:53;11.50;99.90
11112;DHT22;5609;49.466;8.468;2023-04-24T01:32:20;11.50;99.90
11112;DHT22;5609;49.466;8.468;2023-04-24T01:34:47;11.50;99.90
11112;DHT22;5609;49.466;8.468;2023-04-24T01:37:14;11.50;99.90
11112;DHT22;5609;49.466;8.468;2023-04-24T01:39:43;11.50;99.90
11112;DHT22;5609;49.466;8.468;2023-04-24T01:42:10;11.50;99.90
11112;DHT22;5609;49.466;8.468;2023-04-24T01:44:38;11.40;99.90
11112;DHT22;5609;49.466;8.468;2023-04-24T01:47:05;11.40;99.90
11112;DHT22;5609;49.466;8.468;2023-04-24T01:49:32;11.40;99.90
11112;DHT22;5609;49.466;8.468;2023-04-24T01:51:59;11.40;99.90
11112;DHT22;5609;49.466;8.468;2023-04-24T01:54:28;11.40;99.90
11112;DHT22;5609;49.466;8.468;2023-04-24T01:56:56;11.50;99.90
11112;DHT22;5609;49.466;8.468;2023-04-24T01:59:23;11.50;99.90
11112;DHT22;5609;49.466;8.468;2023-04-24T02:01:51;11.50;99.90
11112;DHT22;5609;49.466;8.468;2023-04-24T02:04:18;11.40;99.90
11112;DHT22;5609;49.466;8.468;2023-04-24T02:06:45;11.50;99.90
11112;DHT22;5609;49.466;8.468;2023-04-24T02:09:12;11.50;99.90
11112;DHT22;5609;49.466;8.468;2023-04-24T02:11:38;11.50;99.90
11112;DHT22;5609;49.466;8.468;2023-04-24T02:14:06;11.50;99.90
11112;DHT22;5609;49.466;8.468;2023-04-24T02:16:33;11.50;99.90
11112;DHT22;5609;49.466;8.468;2023-04-24T02:19:01;11.50;99.90
11112;DHT22;5609;49.466;8.468;2023-04-24T02:21:28;11.50;99.90
11112;DHT22;5609;49.466;8.468;2023-04-24T02:23:56;11.50;99.90
11112;DHT22;5609;49.466;8.468;2023-04-24T02:26:23;11.60;99.90
11112;DHT22;5609;49.466;8.468;2023-04-24T02:28:50;11.60;99.90
11112;DHT22;5609;49.466;8.468;2023-04-24T02:31:18;11.60;99.90
11112;DHT22;5609;49.466;8.468;2023-04-24T02:33:45;11.50;99.90
11112;DHT22;5609;49.466;8.468;2023-04-24T02:36:12;11.50;99.90
11112;DHT22;5609;49.466;8.468;2023-04-24T02:38:39;11.60;99.90
11112;DHT22;5609;49.466;8.468;2023-04-24T02:41:06;11.60;99.90
11112;DHT22;5609;49.466;8.468;2023-04-24T02:43:32;11.60;99.90
11112;DHT22;5609;49.466;8.468;2023-04-24T02:46:00;11.60;99.90
11112;DHT22;5609;49.466;8.468;2023-04-24T02:48:28;11.50;99.90
11112;DHT22;5609;49.466;8.468;2023-04-24T02:50:55;11.40;99.90
11112;DHT22;5609;49.466;8.468;2023-04-24T02:53:23;11.20;99.90
11112;DHT22;5609;49.466;8.468;2023-04-24T02:55:49;11.10;99.90
11112;DHT22;5609;49.466;8.468;2023-04-24T02:58:16;11.00;99.90
11112;DHT22;5609;49.466;8.468;2023-04-24T03:00:45;10.90;99.90
11112;DHT22;5609;49.466;8.468;2023-04-24T03:03:12;10.90;99.90
11112;DHT22;5609;49.466;8.468;2023-04-24T03:05:40;10.80;99.90
11112;DHT22;5609;49.466;8.468;2023-04-24T03:08:06;10.70;99.90
11112;DHT22;5609;49.466;8.468;2023-04-24T03:10:33;10.70;99.90
11112;DHT22;5609;49.466;8.468;2023-04-24T03:13:00;10.70;99.90
11112;DHT22;5609;49.466;8.468;2023-04-24T03:15:27;10.70;99.90
11112;DHT22;5609;49.466;8.468;2023-04-24T03:17:54;10.70;99.90
11112;DHT22;5609;49.466;8.468;2023-04-24T03:20:21;10.80;99.90
11112;DHT22;5609;49.466;8.468;2023-04-24T03:22:49;10.70;99.90
11112;DHT22;5609;49.466;8.468;2023-04-24T03:25:15;10.60;99.90
11112;DHT22;5609;49.466;8.468;2023-04-24T03:27:42;10.60;99.90
11112;DHT22;5609;49.466;8.468;2023-04-24T03:30:09;10.60;99.90
11112;DHT22;5609;49.466;8.468;2023-04-24T03:32:36;10.60;99.90
11112;DHT22;5609;49.466;8.468;2023-04-24T03:35:05;10.50;99.90
11112;DHT22;5609;49.466;8.468;2023-04-24T03:37:32;10.50;99.90
11112;DHT22;5609;49.466;8.468;2023-04-24T03:40:00;10.40;99.90
11112;DHT22;5609;49.466;8.468;2023-04-24T03:42:27;10.40;99.90
11112;DHT22;5609;49.466;8.468;2023-04-24T03:44:54;10.30;99.90
11112;DHT22;5609;49.466;8.468;2023-04-24T03:47:20;10.20;99.90
11112;DHT22;5609;49.466;8.468;2023-04-24T03:49:47;10.20;99.90
11112;DHT22;5609;49.466;8.468;2023-04-24T03:52:14;10.10;99.90
11112;DHT22;5609;49.466;8.468;2023-04-24T03:54:41;10.10;99.90
11112;DHT22;5609;49.466;8.468;2023-04-24T03:57:09;10.00;99.90
11112;DHT22;5609;49.466;8.468;2023-04-24T03:59:35;10.00;99.90
11112;DHT22;5609;49.466;8.468;2023-04-24T04:02:04;10.00;99.90
11112;DHT22;5609;49.466;8.468;2023-04-24T04:04:31;9.90;99.90
11112;DHT22;5609;49.466;8.468;2023-04-24T04:06:58;9.80;99.90
11112;DHT22;5609;49.466;8.468;2023-04-24T04:09:26;9.80;99.90
11112;DHT22;5609;49.466;8.468;2023-04-24T04:11:53;9.70;99.90
11112;DHT22;5609;49.466;8.468;2023-04-24T04:14:21;9.60;99.90
11112;DHT22;5609;49.466;8.468;2023-04-24T04:16:48;9.60;99.90
11112;DHT22;5609;49.466;8.468;2023-04-24T04:19:15;9.60;99.90
11112;DHT22;5609;49.466;8.468;2023-04-24T04:21:42;9.50;99.90
11112;DHT22;5609;49.466;8.468;2023-04-24T04:24:11;9.50;99.90
11112;DHT22;5609;49.466;8.468;2023-04-24T04:26:38;9.40;99.90
11112;DHT22;5609;49.466;8.468;2023-04-24T04:29:06;9.50;99.90
11112;DHT22;5609;49.466;8.468;2023-04-24T04:31:34;9.50;99.90
11112;DHT22;5609;49.466;8.468;2023-04-24T04:34:02;9.40;99.90
11112;DHT22;5609;49.466;8.468;2023-04-24T04:36:29;9.40;99.90
11112;DHT22;5609;49.466;8.468;2023-04-24T04:38:55;9.30;99.90
11112;DHT22;5609;49.466;8.468;2023-04-24T04:41:24;9.30;99.90
11112;DHT22;5609;49.466;8.468;2023-04-24T04:43:51;9.20;99.90
11112;DHT22;5609;49.466;8.468;2023-04-24T04:46:18;9.20;99.90
11112;DHT22;5609;49.466;8.468;2023-04-24T04:48:46;9.20;99.90
11112;DHT22;5609;49.466;8.468;2023-04-24T04:51:13;9.20;99.90
11112;DHT22;5609;49.466;8.468;2023-04-24T04:53:39;9.20;99.90
11112;DHT22;5609;49.466;8.468;2023-04-24T04:56:06;9.20;99.90
11112;DHT22;5609;49.466;8.468;2023-04-24T04:58:33;9.30;99.90
11112;DHT22;5609;49.466;8.468;2023-04-24T05:01:00;9.30;99.90
11112;DHT22;5609;49.466;8.468;2023-04-24T05:03:27;9.30;99.90
11112;DHT22;5609;49.466;8.468;2023-04-24T05:05:56;9.30;99.90
11112;DHT22;5609;49.466;8.468;2023-04-24T05:08:23;9.40;99.90
11112;DHT22;5609;49.466;8.468;2023-04-24T05:10:50;9.40;99.90
11112;DHT22;5609;49.466;8.468;2023-04-24T05:13:17;9.40;99.90
11112;DHT22;5609;49.466;8.468;2023-04-24T05:15:44;9.50;99.90
11112;DHT22;5609;49.466;8.468;2023-04-24T05:18:10;9.50;99.90
11112;DHT22;5609;49.466;8.468;2023-04-24T05:20:37;9.60;99.90
11112;DHT22;5609;49.466;8.468;2023-04-24T05:23:05;9.70;99.90
11112;DHT22;5609;49.466;8.468;2023-04-24T05:25:32;9.80;99.90
11112;DHT22;5609;49.466;8.468;2023-04-24T05:28:00;9.80;99.90
11112;DHT22;5609;49.466;8.468;2023-04-24T05:30:27;9.80;99.90
11112;DHT22;5609;49.466;8.468;2023-04-24T05:32:54;9.80;99.90
11112;DHT22;5609;49.466;8.468;2023-04-24T05:35:20;9.90;99.90
11112;DHT22;5609;49.466;8.468;2023-04-24T05:37:47;9.80;99.90
11112;DHT22;5609;49.466;8.468;2023-04-24T05:40:15;9.80;99.90
11112;DHT22;5609;49.466;8.468;2023-04-24T05:42:42;9.90;99.90
11112;DHT22;5609;49.466;8.468;2023-04-24T05:45:09;10.00;99.90
11112;DHT22;5609;49.466;8.468;2023-04-24T05:47:42;10.10;99.90
11112;DHT22;5609;49.466;8.468;2023-04-24T05:50:09;10.30;99.90
11112;DHT22;5609;49.466;8.468;2023-04-24T05:52:36;10.40;99.90
11112;DHT22;5609;49.466;8.468;2023-04-24T05:55:03;10.40;99.90
11112;DHT22;5609;49.466;8.468;2023-04-24T05:57:32;10.50;99.90
11112;DHT22;5609;49.466;8.468;2023-04-24T05:59:58;10.50;99.90
11112;DHT22;5609;49.466;8.468;2023-04-24T06:02:25;10.50;99.90
11112;DHT22;5609;49.466;8.468;2023-04-24T06:04:52;10.50;99.90
11112;DHT22;5609;49.466;8.468;2023-04-24T06:07:19;10.60;99.90
11112;DHT22;5609;49.466;8.468;2023-04-24T06:09:46;10.50;99.90
11112;DHT22;5609;49.466;8.468;2023-04-24T06:12:13;10.60;99.90
11112;DHT22;5609;49.466;8.468;2023-04-24T06:14:41;10.60;99.90
11112;DHT22;5609;49.466;8.468;2023-04-24T06:17:08;10.70;99.90
11112;DHT22;5609;49.466;8.468;2023-04-24T06:19:35;10.80;99.90
11112;DHT22;5609;49.466;8.468;2023-04-24T06:22:01;10.80;99.90
11112;DHT22;5609;49.466;8.468;2023-04-24T06:24:28;10.90;99.90
11112;DHT22;5609;49.466;8.468;2023-04-24T06:26:55;11.00;99.90
11112;DHT22;5609;49.466;8.468;2023-04-24T06:29:24;11.10;99.90
11112;DHT22;5609;49.466;8.468;2023-04-24T06:31:52;11.00;99.90
11112;DHT22;5609;49.466;8.468;2023-04-24T06:34:19;10.80;99.90
11112;DHT22;5609;49.466;8.468;2023-04-24T06:36:46;10.60;99.90
11112;DHT22;5609;49.466;8.468;2023-04-24T06:39:13;10.60;99.90
11112;DHT22;5609;49.466;8.468;2023-04-24T06:41:40;10.50;99.90
11112;DHT22;5609;49.466;8.468;2023-04-24T06:44:07;10.40;99.90
11112;DHT22;5609;49.466;8.468;2023-04-24T06:46:34;10.40;99.90
11112;DHT22;5609;49.466;8.468;2023-04-24T06:49:02;10.30;99.90
11112;DHT22;5609;49.466;8.468;2023-04-24T06:51:28;10.30;99.90
11112;DHT22;5609;49.466;8.468;2023-04-24T06:53:56;10.30;99.90
11112;DHT22;5609;49.466;8.468;2023-04-24T06:56:23;10.30;99.90
11112;DHT22;5609;49.466;8.468;2023-04-24T06:58:50;10.30;99.90
11112;DHT22;5609;49.466;8.468;2023-04-24T07:01:17;10.40;99.90
11112;DHT22;5609;49.466;8.468;2023-04-24T07:03:44;10.40;99.90
11112;DHT22;5609;49.466;8.468;2023-04-24T07:06:12;10.40;99.90
11112;DHT22;5609;49.466;8.468;2023-04-24T07:08:39;10.40;99.90
11112;DHT22;5609;49.466;8.468;2023-04-24T07:11:08;10.40;99.90
11112;DHT22;5609;49.466;8.468;2023-04-24T07:13:34;10.40;99.90
11112;DHT22;5609;49.466;8.468;2023-04-24T07:16:01;10.40;99.90
11112;DHT22;5609;49.466;8.468;2023-04-24T07:18:28;10.50;99.90
11112;DHT22;5609;49.466;8.468;2023-04-24T07:20:55;10.60;99.90
11112;DHT22;5609;49.466;8.468;2023-04-24T07:23:23;10.80;99.90
11112;DHT22;5609;49.466;8.468;2023-04-24T07:25:50;10.90;99.90
11112;DHT22;5609;49.466;8.468;2023-04-24T07:28:17;11.00;99.90
11112;DHT22;5609;49.466;8.468;2023-04-24T07:30:44;10.90;99.90
11112;DHT22;5609;49.466;8.468;2023-04-24T07:33:10;10.80;99.90
11112;DHT22;5609;49.466;8.468;2023-04-24T07:35:38;10.80;99.90
11112;DHT22;5609;49.466;8.468;2023-04-24T07:38:05;10.80;99.90
11112;DHT22;5609;49.466;8.468;2023-04-24T07:40:33;10.90;99.90
11112;DHT22;5609;49.466;8.468;2023-04-24T07:43:00;10.90;99.90
11112;DHT22;5609;49.466;8.468;2023-04-24T07:45:27;11.10;99.90
11112;DHT22;5609;49.466;8.468;2023-04-24T07:47:53;11.20;99.90
11112;DHT22;5609;49.466;8.468;2023-04-24T07:50:20;11.40;99.90
11112;DHT22;5609;49.466;8.468;2023-04-24T07:52:48;11.60;99.90
11112;DHT22;5609;49.466;8.468;2023-04-24T07:55:14;11.60;99.90
11112;DHT22;5609;49.466;8.468;2023-04-24T07:57:43;11.70;99.90
11112;DHT22;5609;49.466;8.468;2023-04-24T08:00:10;11.90;99.90
11112;DHT22;5609;49.466;8.468;2023-04-24T08:02:37;12.00;99.90
11112;DHT22;5609;49.466;8.468;2023-04-24T08:05:05;12.20;99.90
11112;DHT22;5609;49.466;8.468;2023-04-24T08:07:31;12.20;99.90
11112;DHT22;5609;49.466;8.468;2023-04-24T08:09:58;12.20;99.90
11112;DHT22;5609;49.466;8.468;2023-04-24T08:12:25;12.20;99.90
11112;DHT22;5609;49.466;8.468;2023-04-24T08:14:53;12.30;99.90
11112;DHT22;5609;49.466;8.468;2023-04-24T08:17:20;12.30;99.90
11112;DHT22;5609;49.466;8.468;2023-04-24T08:19:47;12.20;99.90
11112;DHT22;5609;49.466;8.468;2023-04-24T08:22:15;12.20;99.90
11112;DHT22;5609;49.466;8.468;2023-04-24T08:24:42;12.10;99.90
11112;DHT22;5609;49.466;8.468;2023-04-24T08:27:09;12.20;99.90
11112;DHT22;5609;49.466;8.468;2023-04-24T08:29:36;12.10;99.90
11112;DHT22;5609;49.466;8.468;2023-04-24T08:32:04;12.10;99.90
11112;DHT22;5609;49.466;8.468;2023-04-24T08:34:31;12.00;99.90
11112;DHT22;5609;49.466;8.468;2023-04-24T08:36:57;12.10;99.90
11112;DHT22;5609;49.466;8.468;2023-04-24T08:39:24;12.20;99.90
11112;DHT22;5609;49.466;8.468;2023-04-24T08:41:52;12.40;99.90
11112;DHT22;5609;49.466;8.468;2023-04-24T08:44:20;12.70;99.90
11112;DHT22;5609;49.466;8.468;2023-04-24T08:46:47;12.90;99.90
11112;DHT22;5609;49.466;8.468;2023-04-24T08:49:17;13.00;99.90
11112;DHT22;5609;49.466;8.468;2023-04-24T08:51:44;13.00;99.90
11112;DHT22;5609;49.466;8.468;2023-04-24T08:54:12;12.90;99.90
11112;DHT22;5609;49.466;8.468;2023-04-24T08:56:40;12.80;99.90
11112;DHT22;5609;49.466;8.468;2023-04-24T08:59:10;12.60;99.90
11112;DHT22;5609;49.466;8.468;2023-04-24T09:01:37;12.60;99.90
11112;DHT22;5609;49.466;8.468;2023-04-24T09:04:07;12.60;99.90
11112;DHT22;5609;49.466;8.468;2023-04-24T09:06:36;12.50;99.90
11112;DHT22;5609;49.466;8.468;2023-04-24T09:09:03;12.50;99.90
11112;DHT22;5609;49.466;8.468;2023-04-24T09:11:31;12.50;99.90
11112;DHT22;5609;49.466;8.468;2023-04-24T09:13:58;12.50;99.90
11112;DHT22;5609;49.466;8.468;2023-04-24T09:16:26;12.50;99.90
11112;DHT22;5609;49.466;8.468;2023-04-24T09:18:53;12.50;99.90
11112;DHT22;5609;49.466;8.468;2023-04-24T09:21:21;12.30;99.90
11112;DHT22;5609;49.466;8.468;2023-04-24T09:23:59;12.30;99.90
11112;DHT22;5609;49.466;8.468;2023-04-24T09:26:29;12.30;99.90
11112;DHT22;5609;49.466;8.468;2023-04-24T09:28:57;12.30;99.90
11112;DHT22;5609;49.466;8.468;2023-04-24T09:31:27;12.50;99.90
11112;DHT22;5609;49.466;8.468;2023-04-24T09:33:54;12.70;99.90
11112;DHT22;5609;49.466;8.468;2023-04-24T09:36:27;12.90;99.90
11112;DHT22;5609;49.466;8.468;2023-04-24T09:38:59;13.10;99.90
11112;DHT22;5609;49.466;8.468;2023-04-24T09:41:27;13.20;99.90
11112;DHT22;5609;49.466;8.468;2023-04-24T09:43:54;13.20;99.90
11112;DHT22;5609;49.466;8.468;2023-04-24T09:46:29;13.20;99.90
11112;DHT22;5609;49.466;8.468;2023-04-24T09:48:56;13.10;99.90
11112;DHT22;5609;49.466;8.468;2023-04-24T09:51:34;13.00;99.90
11112;DHT22;5609;49.466;8.468;2023-04-24T09:54:03;13.10;99.90
11112;DHT22;5609;49.466;8.468;2023-04-24T09:56:33;13.10;99.90
11112;DHT22;5609;49.466;8.468;2023-04-24T09:59:06;13.30;99.90
11112;DHT22;5609;49.466;8.468;2023-04-24T10:01:33;13.60;99.90
11112;DHT22;5609;49.466;8.468;2023-04-24T10:04:00;14.00;99.90
11112;DHT22;5609;49.466;8.468;2023-04-24T10:06:33;13.90;99.90
11112;DHT22;5609;49.466;8.468;2023-04-24T10:09:00;13.70;99.90
11112;DHT22;5609;49.466;8.468;2023-04-24T10:11:29;13.60;99.90
11112;DHT22;5609;49.466;8.468;2023-04-24T10:13:56;13.30;99.90
11112;DHT22;5609;49.466;8.468;2023-04-24T10:16:24;13.00;99.90
11112;DHT22;5609;49.466;8.468;2023-04-24T10:18:52;13.00;99.90
11112;DHT22;5609;49.466;8.468;2023-04-24T10:21:20;12.90;99.90
11112;DHT22;5609;49.466;8.468;2023-04-24T10:23:48;12.80;99.90
11112;DHT22;5609;49.466;8.468;2023-04-24T10:26:16;12.80;99.90
11112;DHT22;5609;49.466;8.468;2023-04-24T10:28:46;12.90;99.90
11112;DHT22;5609;49.466;8.468;2023-04-24T10:31:14;13.30;99.90
11112;DHT22;5609;49.466;8.468;2023-04-24T10:33:42;13.90;99.90
11112;DHT22;5609;49.466;8.468;2023-04-24T10:36:10;14.30;99.90
11112;DHT22;5609;49.466;8.468;2023-04-24T10:38:39;14.20;99.90
11112;DHT22;5609;49.466;8.468;2023-04-24T10:41:07;14.60;99.90
11112;DHT22;5609;49.466;8.468;2023-04-24T10:43:36;15.00;99.90
11112;DHT22;5609;49.466;8.468;2023-04-24T10:46:05;15.00;99.90
11112;DHT22;5609;49.466;8.468;2023-04-24T10:48:32;14.90;99.90
11112;DHT22;5609;49.466;8.468;2023-04-24T10:50:59;14.90;99.90
11112;DHT22;5609;49.466;8.468;2023-04-24T10:53:28;14.90;99.90
11112;DHT22;5609;49.466;8.468;2023-04-24T10:55:58;15.00;99.90
11112;DHT22;5609;49.466;8.468;2023-04-24T10:58:36;15.20;99.90
11112;DHT22;5609;49.466;8.468;2023-04-24T11:01:05;15.80;99.90
11112;DHT22;5609;49.466;8.468;2023-04-24T11:03:33;15.90;99.90
11112;DHT22;5609;49.466;8.468;2023-04-24T11:06:02;15.90;99.90
11112;DHT22;5609;49.466;8.468;2023-04-24T11:08:32;15.80;99.90
11112;DHT22;5609;49.466;8.468;2023-04-24T11:11:01;15.70;99.90
11112;DHT22;5609;49.466;8.468;2023-04-24T11:14:00;15.80;99.90
11112;DHT22;5609;49.466;8.468;2023-04-24T11:16:30;15.70;99.90
11112;DHT22;5609;49.466;8.468;2023-04-24T11:19:03;15.80;99.90
11112;DHT22;5609;49.466;8.468;2023-04-24T11:21:40;15.70;99.90
11112;DHT22;5609;49.466;8.468;2023-04-24T11:24:30;15.40;99.90
11112;DHT22;5609;49.466;8.468;2023-04-24T11:26:59;15.50;99.90
11112;DHT22;5609;49.466;8.468;2023-04-24T11:29:39;15.30;99.90
11112;DHT22;5609;49.466;8.468;2023-04-24T11:32:19;14.90;99.90
11112;DHT22;5609;49.466;8.468;2023-04-24T11:34:47;14.90;99.90
11112;DHT22;5609;49.466;8.468;2023-04-24T11:37:14;14.80;99.90
11112;DHT22;5609;49.466;8.468;2023-04-24T11:39:41;14.90;99.90
11112;DHT22;5609;49.466;8.468;2023-04-24T11:42:09;14.80;99.90
11112;DHT22;5609;49.466;8.468;2023-04-24T11:44:36;14.60;99.90
11112;DHT22;5609;49.466;8.468;2023-04-24T11:47:03;14.50;99.90
11112;DHT22;5609;49.466;8.468;2023-04-24T11:49:31;14.20;99.90
11112;DHT22;5609;49.466;8.468;2023-04-24T11:51:57;14.00;99.90
11112;DHT22;5609;49.466;8.468;2023-04-24T11:54:25;13.80;99.90
11112;DHT22;5609;49.466;8.468;2023-04-24T11:56:52;13.70;99.90
11112;DHT22;5609;49.466;8.468;2023-04-24T11:59:19;13.50;99.90
11112;DHT22;5609;49.466;8.468;2023-04-24T12:01:46;13.40;99.90
11112;DHT22;5609;49.466;8.468;2023-04-24T12:04:13;13.30;99.90
11112;DHT22;5609;49.466;8.468;2023-04-24T12:06:58;13.40;99.90
11112;DHT22;5609;49.466;8.468;2023-04-24T12:09:25;13.50;99.90
11112;DHT22;5609;49.466;8.468;2023-04-24T12:11:53;13.70;99.90
11112;DHT22;5609;49.466;8.468;2023-04-24T12:14:21;14.00;99.90
11112;DHT22;5609;49.466;8.468;2023-04-24T12:16:48;14.30;99.90
11112;DHT22;5609;49.466;8.468;2023-04-24T12:19:18;14.60;99.90
11112;DHT22;5609;49.466;8.468;2023-04-24T12:21:59;14.80;99.90
11112;DHT22;5609;49.466;8.468;2023-04-24T12:24:26;15.10;99.90
11112;DHT22;5609;49.466;8.468;2023-04-24T12:26:52;15.20;99.90
11112;DHT22;5609;49.466;8.468;2023-04-24T12:29:20;14.90;99.90
11112;DHT22;5609;49.466;8.468;2023-04-24T12:31:47;14.60;99.90
11112;DHT22;5609;49.466;8.468;2023-04-24T12:34:23;14.60;99.90
11112;DHT22;5609;49.466;8.468;2023-04-24T12:36:51;14.60;99.90
11112;DHT22;5609;49.466;8.468;2023-04-24T12:39:19;14.50;99.90
11112;DHT22;5609;49.466;8.468;2023-04-24T12:41:50;14.50;99.90
11112;DHT22;5609;49.466;8.468;2023-04-24T12:44:29;14.40;99.90
11112;DHT22;5609;49.466;8.468;2023-04-24T12:46:55;14.30;99.90
11112;DHT22;5609;49.466;8.468;2023-04-24T12:49:22;14.40;99.90
11112;DHT22;5609;49.466;8.468;2023-04-24T12:51:49;14.60;99.90
11112;DHT22;5609;49.466;8.468;2023-04-24T12:54:17;14.70;99.90
11112;DHT22;5609;49.466;8.468;2023-04-24T12:56:43;14.70;99.90
11112;DHT22;5609;49.466;8.468;2023-04-24T12:59:10;14.80;99.90
11112;DHT22;5609;49.466;8.468;2023-04-24T13:01:37;14.80;99.90
11112;DHT22;5609;49.466;8.468;2023-04-24T13:04:05;14.60;99.90
11112;DHT22;5609;49.466;8.468;2023-04-24T13:06:31;14.50;99.90
11112;DHT22;5609;49.466;8.468;2023-04-24T13:08:58;14.30;99.90
11112;DHT22;5609;49.466;8.468;2023-04-24T13:11:26;14.40;99.90
11112;DHT22;5609;49.466;8.468;2023-04-24T13:13:53;14.30;99.90
11112;DHT22;5609;49.466;8.468;2023-04-24T13:16:20;14.50;99.90
11112;DHT22;5609;49.466;8.468;2023-04-24T13:18:48;14.60;99.90
11112;DHT22;5609;49.466;8.468;2023-04-24T13:21:15;15.20;99.90
11112;DHT22;5609;49.466;8.468;2023-04-24T13:23:41;15.60;99.90
11112;DHT22;5609;49.466;8.468;2023-04-24T13:26:08;16.00;99.90
11112;DHT22;5609;49.466;8.468;2023-04-24T13:28:36;16.00;99.90
11112;DHT22;5609;49.466;8.468;2023-04-24T13:31:03;16.00;99.90
11112;DHT22;5609;49.466;8.468;2023-04-24T13:33:31;16.10;99.90
11112;DHT22;5609;49.466;8.468;2023-04-24T13:35:58;16.20;97.50
11112;DHT22;5609;49.466;8.468;2023-04-24T13:38:25;16.00;98.50
11112;DHT22;5609;49.466;8.468;2023-04-24T13:40:51;16.00;99.90
11112;DHT22;5609;49.466;8.468;2023-04-24T13:43:18;16.00;99.90
11112;DHT22;5609;49.466;8.468;2023-04-24T13:45:46;15.90;99.90
11112;DHT22;5609;49.466;8.468;2023-04-24T13:48:13;15.70;99.90
11112;DHT22;5609;49.466;8.468;2023-04-24T13:50:41;15.40;99.90
11112;DHT22;5609;49.466;8.468;2023-04-24T13:53:08;15.30;99.90
11112;DHT22;5609;49.466;8.468;2023-04-24T13:55:34;15.10;99.90
11112;DHT22;5609;49.466;8.468;2023-04-24T13:58:02;14.90;99.90
11112;DHT22;5609;49.466;8.468;2023-04-24T14:00:28;14.70;99.90
11112;DHT22;5609;49.466;8.468;2023-04-24T14:02:57;14.60;99.90
11112;DHT22;5609;49.466;8.468;2023-04-24T14:05:24;14.60;99.90
11112;DHT22;5609;49.466;8.468;2023-04-24T14:07:51;14.50;99.90
11112;DHT22;5609;49.466;8.468;2023-04-24T14:10:18;14.30;99.90
11112;DHT22;5609;49.466;8.468;2023-04-24T14:12:45;14.20;99.90
11112;DHT22;5609;49.466;8.468;2023-04-24T14:15:11;14.10;99.90
11112;DHT22;5609;49.466;8.468;2023-04-24T14:17:38;14.20;99.90
11112;DHT22;5609;49.466;8.468;2023-04-24T14:20:08;14.10;99.90
11112;DHT22;5609;49.466;8.468;2023-04-24T14:22:35;14.00;99.90
11112;DHT22;5609;49.466;8.468;2023-04-24T14:25:01;14.00;99.90
11112;DHT22;5609;49.466;8.468;2023-04-24T14:27:28;14.00;99.90
11112;DHT22;5609;49.466;8.468;2023-04-24T14:29:55;14.10;99.90
11112;DHT22;5609;49.466;8.468;2023-04-24T14:32:22;14.00;99.90
11112;DHT22;5609;49.466;8.468;2023-04-24T14:34:49;14.10;99.90
11112;DHT22;5609;49.466;8.468;2023-04-24T14:37:17;14.10;99.90
11112;DHT22;5609;49.466;8.468;2023-04-24T14:39:45;14.30;99.90
11112;DHT22;5609;49.466;8.468;2023-04-24T14:42:11;14.40;99.90
11112;DHT22;5609;49.466;8.468;2023-04-24T14:44:39;14.50;99.90
11112;DHT22;5609;49.466;8.468;2023-04-24T14:47:05;14.70;99.90
11112;DHT22;5609;49.466;8.468;2023-04-24T14:49:32;16.00;99.90
11112;DHT22;5609;49.466;8.468;2023-04-24T14:51:59;17.10;99.90
11112;DHT22;5609;49.466;8.468;2023-04-24T14:54:27;17.90;99.90
11112;DHT22;5609;49.466;8.468;2023-04-24T14:56:54;18.00;99.90
11112;DHT22;5609;49.466;8.468;2023-04-24T14:59:22;17.40;99.90
11112;DHT22;5609;49.466;8.468;2023-04-24T15:01:49;16.60;99.90
11112;DHT22;5609;49.466;8.468;2023-04-24T15:04:17;15.90;99.90
11112;DHT22;5609;49.466;8.468;2023-04-24T15:06:43;15.20;99.90
11112;DHT22;5609;49.466;8.468;2023-04-24T15:09:10;14.70;99.90
11112;DHT22;5609;49.466;8.468;2023-04-24T15:11:38;14.40;99.90
11112;DHT22;5609;49.466;8.468;2023-04-24T15:14:05;14.20;99.90
11112;DHT22;5609;49.466;8.468;2023-04-24T15:16:32;14.20;99.90
11112;DHT22;5609;49.466;8.468;2023-04-24T15:18:58;14.00;99.90
11112;DHT22;5609;49.466;8.468;2023-04-24T15:21:25;14.00;99.90
11112;DHT22;5609;49.466;8.468;2023-04-24T15:23:52;14.10;99.90
11112;DHT22;5609;49.466;8.468;2023-04-24T15:26:19;14.00;99.90
11112;DHT22;5609;49.466;8.468;2023-04-24T15:28:47;14.10;99.90
11112;DHT22;5609;49.466;8.468;2023-04-24T15:31:14;14.20;99.90
11112;DHT22;5609;49.466;8.468;2023-04-24T15:33:40;14.50;99.90
11112;DHT22;5609;49.466;8.468;2023-04-24T15:36:08;15.30;99.90
11112;DHT22;5609;49.466;8.468;2023-04-24T15:38:34;15.90;99.90
11112;DHT22;5609;49.466;8.468;2023-04-24T15:41:01;15.50;99.90
11112;DHT22;5609;49.466;8.468;2023-04-24T15:43:28;15.10;99.90
11112;DHT22;5609;49.466;8.468;2023-04-24T15:45:57;15.00;99.90
11112;DHT22;5609;49.466;8.468;2023-04-24T15:48:24;14.80;99.90
11112;DHT22;5609;49.466;8.468;2023-04-24T15:50:51;14.50;99.90